sensor_id;sensor_type;location;lat;lon;timestamp;pressure;altitude;pressure_sealevel;temperature;humidity
14393;BME280;7281;42.678;23.372;2022-08-19T00:01:33;94796.25;;;28.91;36.17
14393;BME280;7281;42.678;23.372;2022-08-19T00:04:06;94799.34;;;28.89;36.82
14393;BME280;7281;42.678;23.372;2022-08-19T00:06:34;94801.72;;;29.02;36.52
14393;BME280;7281;42.678;23.372;2022-08-19T00:09:04;94811.00;;;29.01;36.32
14393;BME280;7281;42.678;23.372;2022-08-19T00:11:33;94807.22;;;29.09;35.89
14393;BME280;7281;42.678;23.372;2022-08-19T00:14:05;94805.19;;;28.98;36.19
14393;BME280;7281;42.678;23.372;2022-08-19T00:16:32;94804.72;;;28.89;36.49
14393;BME280;7281;42.678;23.372;2022-08-19T00:18:59;94816.41;;;29.04;36.44
14393;BME280;7281;42.678;23.372;2022-08-19T00:21:26;94815.63;;;29.04;36.50
14393;BME280;7281;42.678;23.372;2022-08-19T00:23:55;94813.59;;;28.90;36.59
14393;BME280;7281;42.678;23.372;2022-08-19T00:26:26;94825.50;;;28.85;36.75
14393;BME280;7281;42.678;23.372;2022-08-19T00:28:54;94804.72;;;28.89;36.89
14393;BME280;7281;42.678;23.372;2022-08-19T00:31:21;94815.25;;;29.05;36.45
14393;BME280;7281;42.678;23.372;2022-08-19T00:33:48;94822.66;;;29.12;36.19
14393;BME280;7281;42.678;23.372;2022-08-19T00:36:17;94823.44;;;29.12;36.06
14393;BME280;7281;42.678;23.372;2022-08-19T00:38:44;94810.22;;;29.04;36.69
14393;BME280;7281;42.678;23.372;2022-08-19T00:41:16;94818.72;;;29.06;36.73
14393;BME280;7281;42.678;23.372;2022-08-19T00:44:33;94821.78;;;29.01;36.94
14393;BME280;7281;42.678;23.372;2022-08-19T00:46:55;94807.25;;;28.68;37.54
14393;BME280;7281;42.678;23.372;2022-08-19T00:49:31;94814.13;;;28.62;37.47
14393;BME280;7281;42.678;23.372;2022-08-19T00:52:12;94816.66;;;28.48;37.43
14393;BME280;7281;42.678;23.372;2022-08-19T00:54:41;94791.84;;;28.32;37.68
14393;BME280;7281;42.678;23.372;2022-08-19T00:57:11;94809.03;;;28.54;37.49
14393;BME280;7281;42.678;23.372;2022-08-19T00:59:41;94810.63;;;28.58;37.21
14393;BME280;7281;42.678;23.372;2022-08-19T01:02:30;94807.34;;;28.42;37.90
14393;BME280;7281;42.678;23.372;2022-08-19T01:04:57;94822.78;;;28.45;37.85
14393;BME280;7281;42.678;23.372;2022-08-19T01:07:24;94817.38;;;28.45;38.40
14393;BME280;7281;42.678;23.372;2022-08-19T01:09:51;94818.75;;;28.29;38.86
14393;BME280;7281;42.678;23.372;2022-08-19T01:12:18;94819.50;;;28.26;38.56
14393;BME280;7281;42.678;23.372;2022-08-19T01:14:46;94818.53;;;28.08;38.68
14393;BME280;7281;42.678;23.372;2022-08-19T01:17:14;94817.81;;;28.14;38.87
14393;BME280;7281;42.678;23.372;2022-08-19T01:19:43;94816.34;;;28.20;38.56
14393;BME280;7281;42.678;23.372;2022-08-19T01:22:27;94814.22;;;28.36;38.32
14393;BME280;7281;42.678;23.372;2022-08-19T01:25:00;94813.50;;;28.39;38.09
14393;BME280;7281;42.678;23.372;2022-08-19T01:27:37;94815.81;;;28.41;38.08
14393;BME280;7281;42.678;23.372;2022-08-19T01:30:13;94815.72;;;28.30;38.43
14393;BME280;7281;42.678;23.372;2022-08-19T01:32:40;94814.72;;;28.12;38.62
14393;BME280;7281;42.678;23.372;2022-08-19T01:35:08;94813.91;;;28.08;38.48
14393;BME280;7281;42.678;23.372;2022-08-19T01:37:52;94814.66;;;27.75;38.85
14393;BME280;7281;42.678;23.372;2022-08-19T01:40:23;94810.59;;;27.92;38.63
14393;BME280;7281;42.678;23.372;2022-08-19T01:42:51;94804.72;;;27.83;38.35
14393;BME280;7281;42.678;23.372;2022-08-19T01:45:21;94810.44;;;27.78;37.73
14393;BME280;7281;42.678;23.372;2022-08-19T01:47:48;94809.69;;;27.81;38.12
14393;BME280;7281;42.678;23.372;2022-08-19T01:50:27;94820.28;;;27.67;38.42
14393;BME280;7281;42.678;23.372;2022-08-19T01:52:54;94812.66;;;27.72;38.70
14393;BME280;7281;42.678;23.372;2022-08-19T01:55:32;94812.22;;;27.67;38.63
14393;BME280;7281;42.678;23.372;2022-08-19T01:58:01;94807.38;;;27.79;38.42
14393;BME280;7281;42.678;23.372;2022-08-19T02:00:30;94813.47;;;27.47;39.44
14393;BME280;7281;42.678;23.372;2022-08-19T02:02:58;94814.91;;;27.67;39.17
14393;BME280;7281;42.678;23.372;2022-08-19T02:05:25;94824.63;;;27.75;39.30
14393;BME280;7281;42.678;23.372;2022-08-19T02:07:52;94816.00;;;27.92;38.63
14393;BME280;7281;42.678;23.372;2022-08-19T02:10:21;94819.75;;;27.84;38.57
14393;BME280;7281;42.678;23.372;2022-08-19T02:12:48;94820.53;;;27.84;38.72
14393;BME280;7281;42.678;23.372;2022-08-19T02:15:18;94819.19;;;28.01;38.38
14393;BME280;7281;42.678;23.372;2022-08-19T02:17:46;94821.09;;;27.97;38.73
14393;BME280;7281;42.678;23.372;2022-08-19T02:20:14;94814.03;;;27.89;38.94
14393;BME280;7281;42.678;23.372;2022-08-19T02:22:41;94818.00;;;27.95;38.60
14393;BME280;7281;42.678;23.372;2022-08-19T02:25:13;94818.28;;;27.90;39.03
14393;BME280;7281;42.678;23.372;2022-08-19T02:27:41;94824.31;;;27.80;38.96
14393;BME280;7281;42.678;23.372;2022-08-19T02:30:13;94819.75;;;27.84;39.02
14393;BME280;7281;42.678;23.372;2022-08-19T02:32:42;94820.13;;;27.82;39.24
14393;BME280;7281;42.678;23.372;2022-08-19T02:35:12;94818.84;;;27.73;39.54
14393;BME280;7281;42.678;23.372;2022-08-19T02:37:40;94819.84;;;27.61;39.85
14393;BME280;7281;42.678;23.372;2022-08-19T02:40:27;94822.38;;;27.51;40.01
14393;BME280;7281;42.678;23.372;2022-08-19T02:42:55;94822.28;;;27.44;40.14
14393;BME280;7281;42.678;23.372;2022-08-19T02:45:22;94827.44;;;27.30;40.14
14393;BME280;7281;42.678;23.372;2022-08-19T02:47:49;94824.16;;;27.40;39.91
14393;BME280;7281;42.678;23.372;2022-08-19T02:50:16;94835.75;;;27.44;39.67
14393;BME280;7281;42.678;23.372;2022-08-19T02:52:44;94835.38;;;27.45;39.54
14393;BME280;7281;42.678;23.372;2022-08-19T02:55:11;94843.66;;;27.11;40.36
14393;BME280;7281;42.678;23.372;2022-08-19T02:57:38;94844.69;;;27.02;40.11
14393;BME280;7281;42.678;23.372;2022-08-19T03:00:06;94841.41;;;27.13;39.86
14393;BME280;7281;42.678;23.372;2022-08-19T03:02:33;94844.94;;;27.17;39.85
14393;BME280;7281;42.678;23.372;2022-08-19T03:05:02;94838.53;;;27.02;40.21
14393;BME280;7281;42.678;23.372;2022-08-19T03:07:30;94840.66;;;26.89;40.68
14393;BME280;7281;42.678;23.372;2022-08-19T03:09:57;94813.03;;;26.92;40.01
14393;BME280;7281;42.678;23.372;2022-08-19T03:12:25;94836.22;;;27.00;40.21
14393;BME280;7281;42.678;23.372;2022-08-19T03:14:51;94837.06;;;26.63;40.66
14393;BME280;7281;42.678;23.372;2022-08-19T03:17:20;94834.19;;;26.71;40.71
14393;BME280;7281;42.678;23.372;2022-08-19T03:19:46;94828.22;;;26.62;40.93
14393;BME280;7281;42.678;23.372;2022-08-19T03:22:13;94826.13;;;25.38;42.84
14393;BME280;7281;42.678;23.372;2022-08-19T03:24:40;94826.19;;;25.76;42.10
14393;BME280;7281;42.678;23.372;2022-08-19T03:27:07;94827.47;;;26.20;41.55
14393;BME280;7281;42.678;23.372;2022-08-19T03:29:37;94823.78;;;26.28;41.87
14393;BME280;7281;42.678;23.372;2022-08-19T03:32:09;94832.63;;;26.29;42.07
14393;BME280;7281;42.678;23.372;2022-08-19T03:34:56;94826.06;;;26.07;42.32
14393;BME280;7281;42.678;23.372;2022-08-19T03:37:24;94829.56;;;26.30;42.15
14393;BME280;7281;42.678;23.372;2022-08-19T03:39:52;94837.22;;;26.28;41.88
14393;BME280;7281;42.678;23.372;2022-08-19T03:42:19;94837.56;;;26.46;41.91
14393;BME280;7281;42.678;23.372;2022-08-19T03:45:06;94843.06;;;26.53;41.50
14393;BME280;7281;42.678;23.372;2022-08-19T03:47:33;94852.97;;;26.49;41.32
14393;BME280;7281;42.678;23.372;2022-08-19T03:50:00;94847.22;;;26.69;40.79
14393;BME280;7281;42.678;23.372;2022-08-19T03:52:27;94851.25;;;26.82;40.25
14393;BME280;7281;42.678;23.372;2022-08-19T03:54:54;94857.97;;;26.69;40.16
14393;BME280;7281;42.678;23.372;2022-08-19T03:57:21;94848.75;;;26.70;40.56
14393;BME280;7281;42.678;23.372;2022-08-19T03:59:57;94865.13;;;26.84;40.07
14393;BME280;7281;42.678;23.372;2022-08-19T04:02:40;94853.41;;;26.73;40.75
14393;BME280;7281;42.678;23.372;2022-08-19T04:05:24;94871.66;;;27.06;39.96
14393;BME280;7281;42.678;23.372;2022-08-19T04:07:53;94866.94;;;26.99;40.38
14393;BME280;7281;42.678;23.372;2022-08-19T04:10:20;94866.63;;;27.04;39.91
14393;BME280;7281;42.678;23.372;2022-08-19T04:12:47;94863.94;;;27.04;40.18
14393;BME280;7281;42.678;23.372;2022-08-19T04:15:14;94869.84;;;27.14;39.97
14393;BME280;7281;42.678;23.372;2022-08-19T04:17:41;94871.94;;;27.24;39.94
14393;BME280;7281;42.678;23.372;2022-08-19T04:20:08;94874.22;;;26.99;40.39
14393;BME280;7281;42.678;23.372;2022-08-19T04:22:36;94876.84;;;26.95;40.54
14393;BME280;7281;42.678;23.372;2022-08-19T04:25:03;94876.09;;;26.95;40.95
14393;BME280;7281;42.678;23.372;2022-08-19T04:27:30;94878.00;;;26.94;40.75
14393;BME280;7281;42.678;23.372;2022-08-19T04:29:57;94881.56;;;27.02;40.62
14393;BME280;7281;42.678;23.372;2022-08-19T04:32:24;94883.72;;;27.16;40.53
14393;BME280;7281;42.678;23.372;2022-08-19T04:34:51;94880.56;;;26.87;40.85
14393;BME280;7281;42.678;23.372;2022-08-19T04:37:38;94882.66;;;26.75;41.25
14393;BME280;7281;42.678;23.372;2022-08-19T04:40:06;94886.41;;;26.70;41.45
14393;BME280;7281;42.678;23.372;2022-08-19T04:42:51;94882.16;;;26.69;41.71
14393;BME280;7281;42.678;23.372;2022-08-19T04:45:18;94882.16;;;26.69;42.01
14393;BME280;7281;42.678;23.372;2022-08-19T04:47:48;94877.09;;;26.68;41.75
14393;BME280;7281;42.678;23.372;2022-08-19T04:50:27;94874.22;;;26.76;41.51
14393;BME280;7281;42.678;23.372;2022-08-19T04:52:54;94868.72;;;26.92;41.41
14393;BME280;7281;42.678;23.372;2022-08-19T04:55:23;94878.22;;;27.09;41.38
14393;BME280;7281;42.678;23.372;2022-08-19T04:57:55;94883.28;;;27.14;41.00
14393;BME280;7281;42.678;23.372;2022-08-19T05:00:22;94888.22;;;27.31;40.69
14393;BME280;7281;42.678;23.372;2022-08-19T05:02:50;94888.06;;;27.24;40.87
14393;BME280;7281;42.678;23.372;2022-08-19T05:05:17;94883.28;;;27.14;40.93
14393;BME280;7281;42.678;23.372;2022-08-19T05:07:44;94889.63;;;27.25;40.54
14393;BME280;7281;42.678;23.372;2022-08-19T05:10:11;94886.94;;;27.47;40.05
14393;BME280;7281;42.678;23.372;2022-08-19T05:12:39;94892.38;;;27.51;39.97
14393;BME280;7281;42.678;23.372;2022-08-19T05:15:06;94888.53;;;27.52;39.93
14393;BME280;7281;42.678;23.372;2022-08-19T05:17:35;94886.88;;;27.44;39.82
14393;BME280;7281;42.678;23.372;2022-08-19T05:20:07;94882.53;;;27.62;39.85
14393;BME280;7281;42.678;23.372;2022-08-19T05:22:53;94881.44;;;27.40;40.05
14393;BME280;7281;42.678;23.372;2022-08-19T05:25:21;94880.34;;;27.45;40.59
14393;BME280;7281;42.678;23.372;2022-08-19T05:27:48;94886.75;;;27.63;40.21
14393;BME280;7281;42.678;23.372;2022-08-19T05:30:16;94883.88;;;27.75;40.04
14393;BME280;7281;42.678;23.372;2022-08-19T05:32:44;94885.91;;;27.85;39.82
14393;BME280;7281;42.678;23.372;2022-08-19T05:35:11;94876.03;;;27.66;40.19
14393;BME280;7281;42.678;23.372;2022-08-19T05:37:38;94886.47;;;27.68;40.27
14393;BME280;7281;42.678;23.372;2022-08-19T05:40:08;94883.31;;;27.92;39.95
14393;BME280;7281;42.678;23.372;2022-08-19T05:42:35;94886.97;;;27.51;40.53
14393;BME280;7281;42.678;23.372;2022-08-19T05:45:02;94888.75;;;27.66;40.61
14393;BME280;7281;42.678;23.372;2022-08-19T05:47:30;94896.81;;;27.40;41.03
14393;BME280;7281;42.678;23.372;2022-08-19T05:49:57;94893.81;;;27.71;40.79
14393;BME280;7281;42.678;23.372;2022-08-19T05:52:24;94878.59;;;27.07;41.02
14393;BME280;7281;42.678;23.372;2022-08-19T05:54:53;94878.59;;;27.82;40.46
14393;BME280;7281;42.678;23.372;2022-08-19T05:57:23;94885.47;;;28.06;40.11
14393;BME280;7281;42.678;23.372;2022-08-19T05:59:50;94882.25;;;27.70;40.32
14393;BME280;7281;42.678;23.372;2022-08-19T06:02:29;94889.03;;;27.87;40.86
14393;BME280;7281;42.678;23.372;2022-08-19T06:04:57;94885.09;;;28.07;39.66
14393;BME280;7281;42.678;23.372;2022-08-19T06:07:24;94897.53;;;27.37;41.40
14393;BME280;7281;42.678;23.372;2022-08-19T06:09:52;94884.28;;;27.77;40.62
14393;BME280;7281;42.678;23.372;2022-08-19T06:12:28;94894.03;;;28.15;39.77
14393;BME280;7281;42.678;23.372;2022-08-19T06:14:59;94891.25;;;28.37;38.95
14393;BME280;7281;42.678;23.372;2022-08-19T06:17:28;94883.06;;;28.63;38.43
14393;BME280;7281;42.678;23.372;2022-08-19T06:19:57;94893.34;;;28.21;40.40
14393;BME280;7281;42.678;23.372;2022-08-19T06:22:24;94893.59;;;28.09;39.33
14393;BME280;7281;42.678;23.372;2022-08-19T06:24:51;94897.91;;;27.87;40.67
14393;BME280;7281;42.678;23.372;2022-08-19T06:27:20;94897.09;;;28.13;40.44
14393;BME280;7281;42.678;23.372;2022-08-19T06:29:47;94888.69;;;28.18;40.86
14393;BME280;7281;42.678;23.372;2022-08-19T06:32:15;94892.50;;;28.80;38.38
14393;BME280;7281;42.678;23.372;2022-08-19T06:34:42;94889.84;;;28.50;39.23
14393;BME280;7281;42.678;23.372;2022-08-19T06:37:10;94900.00;;;28.60;38.98
14393;BME280;7281;42.678;23.372;2022-08-19T06:39:40;94893.34;;;28.87;38.51
14393;BME280;7281;42.678;23.372;2022-08-19T06:42:07;94879.38;;;28.78;38.73
14393;BME280;7281;42.678;23.372;2022-08-19T06:44:39;94886.84;;;28.92;38.76
14393;BME280;7281;42.678;23.372;2022-08-19T06:47:12;94890.91;;;28.75;40.26
14393;BME280;7281;42.678;23.372;2022-08-19T06:49:41;94887.06;;;29.13;38.44
14393;BME280;7281;42.678;23.372;2022-08-19T06:52:10;94884.19;;;28.95;37.46
14393;BME280;7281;42.678;23.372;2022-08-19T06:54:41;94877.66;;;29.44;37.07
14393;BME280;7281;42.678;23.372;2022-08-19T06:57:22;94889.69;;;29.10;37.70
14393;BME280;7281;42.678;23.372;2022-08-19T06:59:49;94885.78;;;29.04;37.86
14393;BME280;7281;42.678;23.372;2022-08-19T07:02:16;94887.84;;;29.64;36.47
14393;BME280;7281;42.678;23.372;2022-08-19T07:04:49;94889.56;;;29.90;36.20
14393;BME280;7281;42.678;23.372;2022-08-19T07:07:19;94898.63;;;29.64;37.43
14393;BME280;7281;42.678;23.372;2022-08-19T07:09:50;94899.41;;;29.65;38.20
14393;BME280;7281;42.678;23.372;2022-08-19T07:12:31;94894.72;;;29.58;36.95
14393;BME280;7281;42.678;23.372;2022-08-19T07:15:04;94893.31;;;29.75;37.69
14393;BME280;7281;42.678;23.372;2022-08-19T07:17:32;94894.34;;;30.21;36.38
14393;BME280;7281;42.678;23.372;2022-08-19T07:20:01;94884.84;;;30.52;35.53
14393;BME280;7281;42.678;23.372;2022-08-19T07:22:31;94899.78;;;30.25;36.64
14393;BME280;7281;42.678;23.372;2022-08-19T07:24:59;94882.09;;;30.34;35.81
14393;BME280;7281;42.678;23.372;2022-08-19T07:27:26;94896.59;;;30.09;36.16
14393;BME280;7281;42.678;23.372;2022-08-19T07:29:54;94883.63;;;30.39;35.39
14393;BME280;7281;42.678;23.372;2022-08-19T07:32:24;94889.03;;;30.42;34.24
14393;BME280;7281;42.678;23.372;2022-08-19T07:34:55;94889.78;;;30.32;34.50
14393;BME280;7281;42.678;23.372;2022-08-19T07:37:25;94896.34;;;30.35;34.07
14393;BME280;7281;42.678;23.372;2022-08-19T07:40:00;94884.41;;;30.36;35.73
14393;BME280;7281;42.678;23.372;2022-08-19T07:42:27;94885.22;;;30.50;36.72
14393;BME280;7281;42.678;23.372;2022-08-19T07:44:58;94882.16;;;30.73;34.59
14393;BME280;7281;42.678;23.372;2022-08-19T07:47:25;94888.44;;;30.95;33.90
14393;BME280;7281;42.678;23.372;2022-08-19T07:50:12;94882.31;;;31.43;33.47
14393;BME280;7281;42.678;23.372;2022-08-19T07:52:40;94881.53;;;31.36;33.99
14393;BME280;7281;42.678;23.372;2022-08-19T07:55:08;94886.94;;;31.36;34.97
14393;BME280;7281;42.678;23.372;2022-08-19T07:57:56;94886.16;;;31.53;33.21
14393;BME280;7281;42.678;23.372;2022-08-19T08:00:24;94886.94;;;31.43;32.66
14393;BME280;7281;42.678;23.372;2022-08-19T08:02:52;94883.09;;;31.44;32.17
14393;BME280;7281;42.678;23.372;2022-08-19T08:05:22;94867.97;;;31.50;33.01
14393;BME280;7281;42.678;23.372;2022-08-19T08:08:11;94879.19;;;31.45;33.46
14393;BME280;7281;42.678;23.372;2022-08-19T08:10:53;94886.47;;;32.11;33.77
14393;BME280;7281;42.678;23.372;2022-08-19T08:13:24;94880.31;;;31.79;33.90
14393;BME280;7281;42.678;23.372;2022-08-19T08:15:52;94873.97;;;32.42;33.18
14393;BME280;7281;42.678;23.372;2022-08-19T08:18:24;94871.19;;;32.52;32.93
14393;BME280;7281;42.678;23.372;2022-08-19T08:20:56;94865.88;;;32.31;34.03
14393;BME280;7281;42.678;23.372;2022-08-19T08:23:24;94861.88;;;32.60;33.75
14393;BME280;7281;42.678;23.372;2022-08-19T08:25:56;94867.53;;;32.83;32.46
14393;BME280;7281;42.678;23.372;2022-08-19T08:28:24;94857.38;;;33.02;31.33
14393;BME280;7281;42.678;23.372;2022-08-19T08:30:55;94860.78;;;33.13;31.68
14393;BME280;7281;42.678;23.372;2022-08-19T08:33:25;94863.50;;;32.40;31.63
14393;BME280;7281;42.678;23.372;2022-08-19T08:36:07;94861.94;;;32.39;31.47
14393;BME280;7281;42.678;23.372;2022-08-19T08:38:36;94858.75;;;32.65;30.76
14393;BME280;7281;42.678;23.372;2022-08-19T08:41:18;94857.00;;;32.93;30.71
14393;BME280;7281;42.678;23.372;2022-08-19T08:43:51;94854.78;;;32.80;31.83
14393;BME280;7281;42.678;23.372;2022-08-19T08:46:48;94849.19;;;33.05;31.46
14393;BME280;7281;42.678;23.372;2022-08-19T08:52:25;94846.66;;;33.32;29.78
14393;BME280;7281;42.678;23.372;2022-08-19T08:55:03;94842.91;;;33.63;28.45
14393;BME280;7281;42.678;23.372;2022-08-19T09:00:25;94835.78;;;34.13;28.25
14393;BME280;7281;42.678;23.372;2022-08-19T09:02:57;94837.84;;;34.36;28.52
14393;BME280;7281;42.678;23.372;2022-08-19T09:06:17;94831.84;;;33.81;27.44
14393;BME280;7281;42.678;23.372;2022-08-19T09:08:40;94837.66;;;34.50;27.40
14393;BME280;7281;42.678;23.372;2022-08-19T09:11:31;94826.19;;;34.92;28.90
14393;BME280;7281;42.678;23.372;2022-08-19T09:17:13;94823.19;;;35.79;27.28
14393;BME280;7281;42.678;23.372;2022-08-19T09:22:38;94818.47;;;35.37;25.23
14393;BME280;7281;42.678;23.372;2022-08-19T09:25:07;94822.44;;;34.83;24.85
14393;BME280;7281;42.678;23.372;2022-08-19T09:27:36;94818.25;;;34.48;25.40
14393;BME280;7281;42.678;23.372;2022-08-19T09:30:20;94809.03;;;35.45;24.62
14393;BME280;7281;42.678;23.372;2022-08-19T09:32:48;94809.69;;;35.26;23.64
14393;BME280;7281;42.678;23.372;2022-08-19T09:35:22;94808.47;;;34.81;23.13
14393;BME280;7281;42.678;23.372;2022-08-19T09:37:50;94807.13;;;34.65;23.37
14393;BME280;7281;42.678;23.372;2022-08-19T09:40:26;94806.72;;;34.37;22.99
14393;BME280;7281;42.678;23.372;2022-08-19T09:42:56;94798.63;;;34.63;22.74
14393;BME280;7281;42.678;23.372;2022-08-19T09:45:24;94814.50;;;34.92;22.02
14393;BME280;7281;42.678;23.372;2022-08-19T09:47:52;94802.81;;;35.41;22.20
14393;BME280;7281;42.678;23.372;2022-08-19T09:50:22;94803.38;;;35.98;22.84
14393;BME280;7281;42.678;23.372;2022-08-19T09:52:50;94794.75;;;36.39;23.84
14393;BME280;7281;42.678;23.372;2022-08-19T09:55:24;94784.72;;;36.88;22.43
14393;BME280;7281;42.678;23.372;2022-08-19T09:58:01;94788.69;;;36.67;22.04
14393;BME280;7281;42.678;23.372;2022-08-19T10:00:28;94795.63;;;35.54;20.96
14393;BME280;7281;42.678;23.372;2022-08-19T10:02:55;94787.69;;;36.41;21.61
14393;BME280;7281;42.678;23.372;2022-08-19T10:05:22;94785.31;;;36.43;20.96
14393;BME280;7281;42.678;23.372;2022-08-19T10:08:09;94783.88;;;36.35;20.88
14393;BME280;7281;42.678;23.372;2022-08-19T10:10:42;94776.53;;;36.52;21.42
14393;BME280;7281;42.678;23.372;2022-08-19T10:13:15;94775.13;;;37.12;21.80
14393;BME280;7281;42.678;23.372;2022-08-19T10:15:42;94767.78;;;36.77;20.58
14393;BME280;7281;42.678;23.372;2022-08-19T10:18:15;94768.91;;;37.27;20.65
14393;BME280;7281;42.678;23.372;2022-08-19T10:20:45;94771.09;;;37.48;20.48
14393;BME280;7281;42.678;23.372;2022-08-19T10:23:18;94759.78;;;37.34;21.01
14393;BME280;7281;42.678;23.372;2022-08-19T10:25:47;94772.75;;;37.14;21.18
14393;BME280;7281;42.678;23.372;2022-08-19T10:28:14;94770.44;;;37.44;20.94
14393;BME280;7281;42.678;23.372;2022-08-19T10:30:44;94761.13;;;37.42;20.94
14393;BME280;7281;42.678;23.372;2022-08-19T10:33:11;94762.16;;;37.32;21.78
14393;BME280;7281;42.678;23.372;2022-08-19T10:35:40;94756.81;;;37.57;21.74
14393;BME280;7281;42.678;23.372;2022-08-19T10:38:21;94747.84;;;38.14;21.33
14393;BME280;7281;42.678;23.372;2022-08-19T10:40:58;94753.03;;;37.67;20.67
14393;BME280;7281;42.678;23.372;2022-08-19T10:43:33;94753.34;;;38.26;20.89
14393;BME280;7281;42.678;23.372;2022-08-19T10:46:08;94747.66;;;38.33;19.90
14393;BME280;7281;42.678;23.372;2022-08-19T10:48:43;94749.50;;;38.24;20.21
14393;BME280;7281;42.678;23.372;2022-08-19T10:51:11;94752.00;;;37.61;19.67
14393;BME280;7281;42.678;23.372;2022-08-19T10:53:58;94735.16;;;38.32;20.31
14393;BME280;7281;42.678;23.372;2022-08-19T10:56:25;94740.84;;;38.25;21.25
14393;BME280;7281;42.678;23.372;2022-08-19T10:59:11;94735.28;;;38.29;20.88
14393;BME280;7281;42.678;23.372;2022-08-19T11:01:42;94745.66;;;38.21;20.85
14393;BME280;7281;42.678;23.372;2022-08-19T11:04:09;94741.66;;;37.97;20.67
14393;BME280;7281;42.678;23.372;2022-08-19T11:06:41;94739.13;;;38.57;20.97
14393;BME280;7281;42.678;23.372;2022-08-19T11:09:10;94744.28;;;38.92;19.74
14393;BME280;7281;42.678;23.372;2022-08-19T11:11:41;94719.50;;;38.45;20.74
14393;BME280;7281;42.678;23.372;2022-08-19T11:14:13;94742.63;;;38.44;19.95
14393;BME280;7281;42.678;23.372;2022-08-19T11:16:42;94734.72;;;38.21;19.91
14393;BME280;7281;42.678;23.372;2022-08-19T11:19:10;94743.25;;;37.82;20.18
14393;BME280;7281;42.678;23.372;2022-08-19T11:21:40;94736.31;;;37.04;20.55
14393;BME280;7281;42.678;23.372;2022-08-19T11:24:11;94740.03;;;37.10;20.36
14393;BME280;7281;42.678;23.372;2022-08-19T11:26:43;94714.91;;;37.76;20.18
14393;BME280;7281;42.678;23.372;2022-08-19T11:29:11;94729.94;;;37.97;19.81
14393;BME280;7281;42.678;23.372;2022-08-19T11:31:43;94730.53;;;38.04;20.06
14393;BME280;7281;42.678;23.372;2022-08-19T11:34:13;94718.28;;;38.21;20.34
14393;BME280;7281;42.678;23.372;2022-08-19T11:36:42;94717.38;;;37.99;19.76
14393;BME280;7281;42.678;23.372;2022-08-19T11:39:16;94717.56;;;37.92;19.76
14393;BME280;7281;42.678;23.372;2022-08-19T11:41:43;94718.44;;;37.89;20.71
14393;BME280;7281;42.678;23.372;2022-08-19T11:44:10;94713.94;;;38.49;19.56
14393;BME280;7281;42.678;23.372;2022-08-19T11:46:37;94705.38;;;38.85;20.23
14393;BME280;7281;42.678;23.372;2022-08-19T11:49:05;94705.75;;;39.21;19.24
14393;BME280;7281;42.678;23.372;2022-08-19T11:51:40;94703.13;;;39.73;19.40
14393;BME280;7281;42.678;23.372;2022-08-19T11:54:11;94702.75;;;39.62;19.31
14393;BME280;7281;42.678;23.372;2022-08-19T11:56:39;94686.56;;;39.55;18.87
14393;BME280;7281;42.678;23.372;2022-08-19T11:59:06;94698.81;;;39.63;20.01
14393;BME280;7281;42.678;23.372;2022-08-19T12:01:40;94691.44;;;39.94;19.28
14393;BME280;7281;42.678;23.372;2022-08-19T12:04:09;94687.84;;;39.63;19.98
14393;BME280;7281;42.678;23.372;2022-08-19T12:06:39;94683.28;;;39.69;19.54
14393;BME280;7281;42.678;23.372;2022-08-19T12:09:08;94682.88;;;39.92;20.24
14393;BME280;7281;42.678;23.372;2022-08-19T12:11:37;94672.25;;;40.03;20.09
14393;BME280;7281;42.678;23.372;2022-08-19T12:14:05;94676.28;;;40.20;19.69
14393;BME280;7281;42.678;23.372;2022-08-19T12:16:32;94677.50;;;39.67;20.60
14393;BME280;7281;42.678;23.372;2022-08-19T12:19:04;94673.84;;;40.22;19.42
14393;BME280;7281;42.678;23.372;2022-08-19T12:21:33;94659.63;;;39.84;19.66
14393;BME280;7281;42.678;23.372;2022-08-19T12:24:01;94668.91;;;39.56;19.82
14393;BME280;7281;42.678;23.372;2022-08-19T12:26:30;94663.97;;;39.51;19.78
14393;BME280;7281;42.678;23.372;2022-08-19T12:28:58;94656.44;;;40.07;19.32
14393;BME280;7281;42.678;23.372;2022-08-19T12:31:27;94651.00;;;40.25;19.04
14393;BME280;7281;42.678;23.372;2022-08-19T12:33:55;94645.31;;;40.11;19.42
14393;BME280;7281;42.678;23.372;2022-08-19T12:36:23;94643.50;;;40.57;19.12
14393;BME280;7281;42.678;23.372;2022-08-19T12:38:52;94645.34;;;40.69;18.99
14393;BME280;7281;42.678;23.372;2022-08-19T12:41:19;94634.22;;;40.23;18.97
14393;BME280;7281;42.678;23.372;2022-08-19T12:43:49;94645.97;;;40.64;17.98
14393;BME280;7281;42.678;23.372;2022-08-19T12:46:18;94635.44;;;40.62;18.46
14393;BME280;7281;42.678;23.372;2022-08-19T12:48:48;94636.06;;;40.26;19.31
14393;BME280;7281;42.678;23.372;2022-08-19T12:51:20;94633.41;;;40.54;19.34
14393;BME280;7281;42.678;23.372;2022-08-19T12:53:48;94629.84;;;40.84;18.85
14393;BME280;7281;42.678;23.372;2022-08-19T12:56:16;94631.53;;;40.81;20.06
14393;BME280;7281;42.678;23.372;2022-08-19T12:58:48;94630.75;;;40.90;19.56
14393;BME280;7281;42.678;23.372;2022-08-19T13:01:18;94630.47;;;41.15;18.09
14393;BME280;7281;42.678;23.372;2022-08-19T13:03:49;94622.34;;;41.02;19.42
14393;BME280;7281;42.678;23.372;2022-08-19T13:06:19;94629.41;;;41.30;18.54
14393;BME280;7281;42.678;23.372;2022-08-19T13:08:46;94627.13;;;40.93;18.71
14393;BME280;7281;42.678;23.372;2022-08-19T13:11:15;94631.25;;;41.33;18.03
14393;BME280;7281;42.678;23.372;2022-08-19T13:13:46;94622.09;;;41.46;18.47
14393;BME280;7281;42.678;23.372;2022-08-19T13:16:14;94630.94;;;41.68;18.55
14393;BME280;7281;42.678;23.372;2022-08-19T13:18:42;94623.69;;;40.62;18.06
14393;BME280;7281;42.678;23.372;2022-08-19T13:21:10;94617.66;;;41.30;17.44
14393;BME280;7281;42.678;23.372;2022-08-19T13:23:41;94616.44;;;41.58;18.61
14393;BME280;7281;42.678;23.372;2022-08-19T13:26:10;94613.34;;;41.74;18.70
14393;BME280;7281;42.678;23.372;2022-08-19T13:28:39;94615.50;;;40.98;18.48
14393;BME280;7281;42.678;23.372;2022-08-19T13:31:26;94609.69;;;41.50;18.75